sensor_id;sensor_type;location;lat;lon;timestamp;P1;durP1;ratioP1;P2;durP2;ratioP2
76788;SDS011;65740;52.464;13.446;2023-01-15T00:02:05;6.93;;;6.23;;
76788;SDS011;65740;52.464;13.446;2023-01-15T00:04:31;6.70;;;6.03;;
76788;SDS011;65740;52.464;13.446;2023-01-15T00:06:57;7.10;;;6.50;;
76788;SDS011;65740;52.464;13.446;2023-01-15T00:09:22;6.57;;;5.97;;
76788;SDS011;65740;52.464;13.446;2023-01-15T00:11:48;6.20;;;5.70;;
76788;SDS011;65740;52.464;13.446;2023-01-15T00:14:13;7.80;;;5.83;;
76788;SDS011;65740;52.464;13.446;2023-01-15T00:16:39;6.53;;;5.93;;
76788;SDS011;65740;52.464;13.446;2023-01-15T00:19:04;5.73;;;5.23;;
76788;SDS011;65740;52.464;13.446;2023-01-15T00:21:33;6.07;;;5.47;;
76788;SDS011;65740;52.464;13.446;2023-01-15T00:23:58;5.40;;;4.90;;
76788;SDS011;65740;52.464;13.446;2023-01-15T00:26:43;6.00;;;5.33;;
76788;SDS011;65740;52.464;13.446;2023-01-15T00:29:27;5.97;;;5.47;;
76788;SDS011;65740;52.464;13.446;2023-01-15T00:31:57;5.23;;;4.83;;
76788;SDS011;65740;52.464;13.446;2023-01-15T00:34:26;5.10;;;4.70;;
76788;SDS011;65740;52.464;13.446;2023-01-15T00:36:52;5.30;;;4.80;;
76788;SDS011;65740;52.464;13.446;2023-01-15T00:39:17;4.83;;;4.50;;
76788;SDS011;65740;52.464;13.446;2023-01-15T00:41:43;5.20;;;4.80;;
76788;SDS011;65740;52.464;13.446;2023-01-15T00:44:09;4.90;;;4.50;;
76788;SDS011;65740;52.464;13.446;2023-01-15T00:46:34;5.00;;;4.60;;
76788;SDS011;65740;52.464;13.446;2023-01-15T00:49:01;4.93;;;4.53;;
76788;SDS011;65740;52.464;13.446;2023-01-15T00:51:27;5.33;;;4.87;;
76788;SDS011;65740;52.464;13.446;2023-01-15T00:53:52;5.07;;;4.60;;
76788;SDS011;65740;52.464;13.446;2023-01-15T00:56:18;5.00;;;4.60;;
76788;SDS011;65740;52.464;13.446;2023-01-15T00:58:44;4.70;;;4.30;;
76788;SDS011;65740;52.464;13.446;2023-01-15T01:01:11;4.37;;;4.03;;
76788;SDS011;65740;52.464;13.446;2023-01-15T01:03:38;4.30;;;4.00;;
76788;SDS011;65740;52.464;13.446;2023-01-15T01:06:03;4.93;;;4.53;;
76788;SDS011;65740;52.464;13.446;2023-01-15T01:08:29;4.43;;;4.10;;
76788;SDS011;65740;52.464;13.446;2023-01-15T01:11:01;4.67;;;4.27;;
76788;SDS011;65740;52.464;13.446;2023-01-15T01:13:28;4.07;;;3.77;;
76788;SDS011;65740;52.464;13.446;2023-01-15T01:15:53;4.50;;;4.10;;
76788;SDS011;65740;52.464;13.446;2023-01-15T01:18:19;4.20;;;3.80;;
76788;SDS011;65740;52.464;13.446;2023-01-15T01:20:44;4.63;;;4.23;;
76788;SDS011;65740;52.464;13.446;2023-01-15T01:23:10;4.00;;;3.60;;
76788;SDS011;65740;52.464;13.446;2023-01-15T01:25:36;3.90;;;3.60;;
76788;SDS011;65740;52.464;13.446;2023-01-15T01:28:01;4.37;;;3.97;;
76788;SDS011;65740;52.464;13.446;2023-01-15T01:30:27;3.80;;;3.50;;
76788;SDS011;65740;52.464;13.446;2023-01-15T01:32:52;4.60;;;3.20;;
76788;SDS011;65740;52.464;13.446;2023-01-15T01:35:18;3.70;;;3.40;;
76788;SDS011;65740;52.464;13.446;2023-01-15T01:37:47;3.73;;;3.43;;
76788;SDS011;65740;52.464;13.446;2023-01-15T01:40:14;3.03;;;2.83;;
76788;SDS011;65740;52.464;13.446;2023-01-15T01:42:40;4.47;;;4.07;;
76788;SDS011;65740;52.464;13.446;2023-01-15T01:45:07;3.40;;;3.10;;
76788;SDS011;65740;52.464;13.446;2023-01-15T01:47:51;3.70;;;3.40;;
76788;SDS011;65740;52.464;13.446;2023-01-15T01:50:21;2.90;;;2.70;;
76788;SDS011;65740;52.464;13.446;2023-01-15T01:52:48;3.57;;;3.27;;
76788;SDS011;65740;52.464;13.446;2023-01-15T01:55:19;3.23;;;3.00;;
76788;SDS011;65740;52.464;13.446;2023-01-15T01:57:48;3.10;;;2.90;;
76788;SDS011;65740;52.464;13.446;2023-01-15T02:00:15;3.40;;;3.10;;
76788;SDS011;65740;52.464;13.446;2023-01-15T02:02:42;3.00;;;2.70;;
76788;SDS011;65740;52.464;13.446;2023-01-15T02:05:12;3.10;;;2.90;;
76788;SDS011;65740;52.464;13.446;2023-01-15T02:07:42;3.20;;;3.00;;
76788;SDS011;65740;52.464;13.446;2023-01-15T02:10:12;3.37;;;3.07;;
76788;SDS011;65740;52.464;13.446;2023-01-15T02:12:39;2.83;;;2.63;;
76788;SDS011;65740;52.464;13.446;2023-01-15T02:15:14;2.60;;;2.40;;
76788;SDS011;65740;52.464;13.446;2023-01-15T02:17:51;2.73;;;2.53;;
76788;SDS011;65740;52.464;13.446;2023-01-15T02:20:34;3.10;;;2.90;;
76788;SDS011;65740;52.464;13.446;2023-01-15T02:23:30;2.70;;;2.50;;
76788;SDS011;65740;52.464;13.446;2023-01-15T02:28:53;3.27;;;3.07;;
76788;SDS011;65740;52.464;13.446;2023-01-15T02:31:37;3.63;;;3.33;;
76788;SDS011;65740;52.464;13.446;2023-01-15T02:34:42;2.70;;;2.50;;
76788;SDS011;65740;52.464;13.446;2023-01-15T02:37:09;4.57;;;2.83;;
76788;SDS011;65740;52.464;13.446;2023-01-15T02:39:39;3.27;;;3.00;;
76788;SDS011;65740;52.464;13.446;2023-01-15T02:42:08;2.70;;;2.50;;
76788;SDS011;65740;52.464;13.446;2023-01-15T02:44:37;2.53;;;2.33;;
76788;SDS011;65740;52.464;13.446;2023-01-15T02:47:09;2.70;;;2.50;;
76788;SDS011;65740;52.464;13.446;2023-01-15T02:49:37;3.00;;;2.80;;
76788;SDS011;65740;52.464;13.446;2023-01-15T02:52:24;2.73;;;2.53;;
76788;SDS011;65740;52.464;13.446;2023-01-15T02:54:55;2.93;;;2.73;;
76788;SDS011;65740;52.464;13.446;2023-01-15T02:57:27;2.60;;;2.43;;
76788;SDS011;65740;52.464;13.446;2023-01-15T02:59:57;3.00;;;2.70;;
76788;SDS011;65740;52.464;13.446;2023-01-15T03:02:27;2.87;;;2.67;;
76788;SDS011;65740;52.464;13.446;2023-01-15T03:07:50;2.73;;;2.53;;
76788;SDS011;65740;52.464;13.446;2023-01-15T03:10:18;2.60;;;2.40;;
76788;SDS011;65740;52.464;13.446;2023-01-15T03:12:49;2.33;;;2.20;;
76788;SDS011;65740;52.464;13.446;2023-01-15T03:16:12;2.70;;;2.50;;
76788;SDS011;65740;52.464;13.446;2023-01-15T03:18:55;2.47;;;2.37;;
76788;SDS011;65740;52.464;13.446;2023-01-15T03:21:54;2.30;;;2.20;;
76788;SDS011;65740;52.464;13.446;2023-01-15T03:24:23;2.20;;;2.10;;
76788;SDS011;65740;52.464;13.446;2023-01-15T03:26:55;2.90;;;2.13;;
76788;SDS011;65740;52.464;13.446;2023-01-15T03:29:22;1.93;;;1.83;;
76788;SDS011;65740;52.464;13.446;2023-01-15T03:31:49;2.43;;;2.23;;
76788;SDS011;65740;52.464;13.446;2023-01-15T03:34:15;2.17;;;2.07;;
76788;SDS011;65740;52.464;13.446;2023-01-15T03:36:41;2.30;;;2.20;;
76788;SDS011;65740;52.464;13.446;2023-01-15T03:39:07;2.10;;;2.00;;
76788;SDS011;65740;52.464;13.446;2023-01-15T03:41:50;2.40;;;2.20;;
76788;SDS011;65740;52.464;13.446;2023-01-15T03:49:28;2.40;;;2.20;;
76788;SDS011;65740;52.464;13.446;2023-01-15T03:54:46;4.53;;;2.10;;
76788;SDS011;65740;52.464;13.446;2023-01-15T03:57:36;1.80;;;1.70;;
76788;SDS011;65740;52.464;13.446;2023-01-15T04:02:52;2.00;;;1.90;;
76788;SDS011;65740;52.464;13.446;2023-01-15T04:05:20;2.07;;;1.97;;
76788;SDS011;65740;52.464;13.446;2023-01-15T04:07:48;2.03;;;1.93;;
76788;SDS011;65740;52.464;13.446;2023-01-15T04:10:15;2.60;;;2.40;;
76788;SDS011;65740;52.464;13.446;2023-01-15T04:12:41;2.20;;;2.10;;
76788;SDS011;65740;52.464;13.446;2023-01-15T04:15:06;2.10;;;2.00;;
76788;SDS011;65740;52.464;13.446;2023-01-15T04:17:32;2.20;;;2.10;;
76788;SDS011;65740;52.464;13.446;2023-01-15T04:19:58;2.30;;;2.20;;
76788;SDS011;65740;52.464;13.446;2023-01-15T04:22:23;2.00;;;1.90;;
76788;SDS011;65740;52.464;13.446;2023-01-15T04:24:49;2.10;;;2.00;;
76788;SDS011;65740;52.464;13.446;2023-01-15T04:27:15;2.57;;;2.40;;
76788;SDS011;65740;52.464;13.446;2023-01-15T04:29:40;2.27;;;2.17;;
76788;SDS011;65740;52.464;13.446;2023-01-15T04:32:06;2.00;;;1.90;;
76788;SDS011;65740;52.464;13.446;2023-01-15T04:34:32;2.40;;;2.20;;
76788;SDS011;65740;52.464;13.446;2023-01-15T04:36:59;2.20;;;2.10;;
76788;SDS011;65740;52.464;13.446;2023-01-15T04:39:25;2.00;;;1.90;;
76788;SDS011;65740;52.464;13.446;2023-01-15T04:41:50;2.00;;;1.90;;
76788;SDS011;65740;52.464;13.446;2023-01-15T04:44:35;1.83;;;1.73;;
76788;SDS011;65740;52.464;13.446;2023-01-15T04:47:01;2.20;;;2.10;;
76788;SDS011;65740;52.464;13.446;2023-01-15T04:49:27;2.30;;;2.20;;
76788;SDS011;65740;52.464;13.446;2023-01-15T04:51:52;2.10;;;2.00;;
76788;SDS011;65740;52.464;13.446;2023-01-15T04:54:18;2.00;;;1.90;;
76788;SDS011;65740;52.464;13.446;2023-01-15T04:56:48;1.80;;;1.70;;
76788;SDS011;65740;52.464;13.446;2023-01-15T04:59:16;2.53;;;2.07;;
76788;SDS011;65740;52.464;13.446;2023-01-15T05:01:42;2.83;;;1.80;;
76788;SDS011;65740;52.464;13.446;2023-01-15T05:04:08;1.87;;;1.77;;
76788;SDS011;65740;52.464;13.446;2023-01-15T05:06:34;2.10;;;2.00;;
76788;SDS011;65740;52.464;13.446;2023-01-15T05:09:00;1.80;;;1.70;;
76788;SDS011;65740;52.464;13.446;2023-01-15T05:11:26;2.17;;;1.97;;
76788;SDS011;65740;52.464;13.446;2023-01-15T05:13:53;2.10;;;2.00;;
76788;SDS011;65740;52.464;13.446;2023-01-15T05:16:20;2.33;;;2.13;;
76788;SDS011;65740;52.464;13.446;2023-01-15T05:18:52;2.00;;;1.90;;
76788;SDS011;65740;52.464;13.446;2023-01-15T05:23:49;1.80;;;1.60;;
76788;SDS011;65740;52.464;13.446;2023-01-15T05:26:16;1.97;;;1.87;;
76788;SDS011;65740;52.464;13.446;2023-01-15T05:28:42;2.17;;;2.07;;
76788;SDS011;65740;52.464;13.446;2023-01-15T05:31:09;1.83;;;1.73;;
76788;SDS011;65740;52.464;13.446;2023-01-15T05:33:42;2.00;;;1.90;;
76788;SDS011;65740;52.464;13.446;2023-01-15T05:36:10;1.97;;;1.87;;
76788;SDS011;65740;52.464;13.446;2023-01-15T05:38:37;1.60;;;1.50;;
76788;SDS011;65740;52.464;13.446;2023-01-15T05:41:04;1.87;;;1.77;;
76788;SDS011;65740;52.464;13.446;2023-01-15T05:43:54;2.20;;;2.10;;
76788;SDS011;65740;52.464;13.446;2023-01-15T05:46:21;1.80;;;1.70;;
76788;SDS011;65740;52.464;13.446;2023-01-15T05:48:47;1.73;;;1.63;;
76788;SDS011;65740;52.464;13.446;2023-01-15T05:51:13;2.10;;;2.00;;
76788;SDS011;65740;52.464;13.446;2023-01-15T05:53:39;1.90;;;1.70;;
76788;SDS011;65740;52.464;13.446;2023-01-15T05:56:04;2.00;;;1.90;;
76788;SDS011;65740;52.464;13.446;2023-01-15T05:58:30;2.37;;;1.60;;
76788;SDS011;65740;52.464;13.446;2023-01-15T06:00:56;2.20;;;2.10;;
76788;SDS011;65740;52.464;13.446;2023-01-15T06:03:23;2.00;;;1.90;;
76788;SDS011;65740;52.464;13.446;2023-01-15T06:05:50;1.90;;;1.80;;
76788;SDS011;65740;52.464;13.446;2023-01-15T06:08:16;1.93;;;1.83;;
76788;SDS011;65740;52.464;13.446;2023-01-15T06:10:45;1.90;;;1.80;;
76788;SDS011;65740;52.464;13.446;2023-01-15T06:13:11;1.80;;;1.70;;
76788;SDS011;65740;52.464;13.446;2023-01-15T06:15:38;1.97;;;1.87;;
76788;SDS011;65740;52.464;13.446;2023-01-15T06:18:03;2.20;;;2.00;;
76788;SDS011;65740;52.464;13.446;2023-01-15T06:20:29;2.00;;;1.87;;
76788;SDS011;65740;52.464;13.446;2023-01-15T06:22:55;2.10;;;2.00;;
76788;SDS011;65740;52.464;13.446;2023-01-15T06:25:20;3.00;;;2.13;;
76788;SDS011;65740;52.464;13.446;2023-01-15T06:27:46;1.70;;;1.60;;
76788;SDS011;65740;52.464;13.446;2023-01-15T06:30:13;1.70;;;1.60;;
76788;SDS011;65740;52.464;13.446;2023-01-15T06:32:39;1.90;;;1.80;;
76788;SDS011;65740;52.464;13.446;2023-01-15T06:35:05;1.87;;;1.77;;
76788;SDS011;65740;52.464;13.446;2023-01-15T06:37:31;1.90;;;1.80;;
76788;SDS011;65740;52.464;13.446;2023-01-15T06:39:56;1.90;;;1.80;;
76788;SDS011;65740;52.464;13.446;2023-01-15T06:42:22;5.37;;;2.20;;
76788;SDS011;65740;52.464;13.446;2023-01-15T06:45:08;1.90;;;1.80;;
76788;SDS011;65740;52.464;13.446;2023-01-15T06:47:52;1.80;;;1.70;;
76788;SDS011;65740;52.464;13.446;2023-01-15T06:50:18;1.87;;;1.77;;
76788;SDS011;65740;52.464;13.446;2023-01-15T06:52:44;2.20;;;2.10;;
76788;SDS011;65740;52.464;13.446;2023-01-15T06:55:09;1.97;;;1.87;;
76788;SDS011;65740;52.464;13.446;2023-01-15T06:57:37;1.80;;;1.70;;
76788;SDS011;65740;52.464;13.446;2023-01-15T07:00:04;1.93;;;1.83;;
76788;SDS011;65740;52.464;13.446;2023-01-15T07:02:33;1.80;;;1.67;;
76788;SDS011;65740;52.464;13.446;2023-01-15T07:04:59;2.00;;;1.80;;
76788;SDS011;65740;52.464;13.446;2023-01-15T07:07:26;1.60;;;1.50;;
76788;SDS011;65740;52.464;13.446;2023-01-15T07:09:52;2.00;;;1.90;;
76788;SDS011;65740;52.464;13.446;2023-01-15T07:12:18;2.10;;;2.00;;
76788;SDS011;65740;52.464;13.446;2023-01-15T07:14:44;1.90;;;1.80;;
76788;SDS011;65740;52.464;13.446;2023-01-15T07:17:10;1.90;;;1.80;;
76788;SDS011;65740;52.464;13.446;2023-01-15T07:19:36;1.93;;;1.73;;
76788;SDS011;65740;52.464;13.446;2023-01-15T07:22:02;1.87;;;1.77;;
76788;SDS011;65740;52.464;13.446;2023-01-15T07:24:28;1.70;;;1.60;;
76788;SDS011;65740;52.464;13.446;2023-01-15T07:26:54;1.97;;;1.87;;
76788;SDS011;65740;52.464;13.446;2023-01-15T07:29:20;1.90;;;1.80;;
76788;SDS011;65740;52.464;13.446;2023-01-15T07:31:47;1.90;;;1.80;;
76788;SDS011;65740;52.464;13.446;2023-01-15T07:34:13;2.10;;;1.97;;
76788;SDS011;65740;52.464;13.446;2023-01-15T07:36:39;1.90;;;1.80;;
76788;SDS011;65740;52.464;13.446;2023-01-15T07:39:05;1.70;;;1.60;;
76788;SDS011;65740;52.464;13.446;2023-01-15T07:41:31;1.80;;;1.70;;
76788;SDS011;65740;52.464;13.446;2023-01-15T07:44:15;1.90;;;1.80;;
76788;SDS011;65740;52.464;13.446;2023-01-15T07:47:00;1.90;;;1.80;;
76788;SDS011;65740;52.464;13.446;2023-01-15T07:49:45;2.13;;;2.03;;
76788;SDS011;65740;52.464;13.446;2023-01-15T07:52:16;2.00;;;1.80;;
76788;SDS011;65740;52.464;13.446;2023-01-15T07:54:43;1.80;;;1.70;;
76788;SDS011;65740;52.464;13.446;2023-01-15T07:57:10;1.80;;;1.70;;
76788;SDS011;65740;52.464;13.446;2023-01-15T07:59:38;1.90;;;1.80;;
76788;SDS011;65740;52.464;13.446;2023-01-15T08:02:04;1.80;;;1.70;;
76788;SDS011;65740;52.464;13.446;2023-01-15T08:04:30;1.70;;;1.60;;
76788;SDS011;65740;52.464;13.446;2023-01-15T08:06:57;1.90;;;1.80;;
76788;SDS011;65740;52.464;13.446;2023-01-15T08:09:27;1.83;;;1.73;;
76788;SDS011;65740;52.464;13.446;2023-01-15T08:11:53;1.70;;;1.60;;
76788;SDS011;65740;52.464;13.446;2023-01-15T08:14:38;1.70;;;1.60;;
76788;SDS011;65740;52.464;13.446;2023-01-15T08:17:23;1.83;;;1.73;;
76788;SDS011;65740;52.464;13.446;2023-01-15T08:19:48;2.00;;;1.90;;
76788;SDS011;65740;52.464;13.446;2023-01-15T08:22:14;1.60;;;1.50;;
76788;SDS011;65740;52.464;13.446;2023-01-15T08:24:39;2.00;;;1.90;;
76788;SDS011;65740;52.464;13.446;2023-01-15T08:27:05;1.70;;;1.60;;
76788;SDS011;65740;52.464;13.446;2023-01-15T08:29:31;1.60;;;1.50;;
76788;SDS011;65740;52.464;13.446;2023-01-15T08:31:56;1.80;;;1.70;;
76788;SDS011;65740;52.464;13.446;2023-01-15T08:34:22;2.03;;;1.83;;
76788;SDS011;65740;52.464;13.446;2023-01-15T08:36:48;1.70;;;1.60;;
76788;SDS011;65740;52.464;13.446;2023-01-15T08:39:17;1.90;;;1.80;;
76788;SDS011;65740;52.464;13.446;2023-01-15T08:41:42;3.67;;;1.70;;
76788;SDS011;65740;52.464;13.446;2023-01-15T08:44:08;1.73;;;1.63;;
76788;SDS011;65740;52.464;13.446;2023-01-15T08:46:34;1.93;;;1.83;;
76788;SDS011;65740;52.464;13.446;2023-01-15T08:49:00;1.97;;;1.80;;
76788;SDS011;65740;52.464;13.446;2023-01-15T08:51:25;1.70;;;1.60;;
76788;SDS011;65740;52.464;13.446;2023-01-15T08:53:51;1.60;;;1.50;;
76788;SDS011;65740;52.464;13.446;2023-01-15T08:56:17;1.93;;;1.83;;
76788;SDS011;65740;52.464;13.446;2023-01-15T08:58:44;2.20;;;1.63;;
76788;SDS011;65740;52.464;13.446;2023-01-15T09:01:11;1.80;;;1.70;;
76788;SDS011;65740;52.464;13.446;2023-01-15T09:03:43;1.80;;;1.70;;
76788;SDS011;65740;52.464;13.446;2023-01-15T09:06:09;1.70;;;1.60;;
76788;SDS011;65740;52.464;13.446;2023-01-15T09:08:35;1.77;;;1.67;;
76788;SDS011;65740;52.464;13.446;2023-01-15T09:11:01;2.00;;;1.80;;
76788;SDS011;65740;52.464;13.446;2023-01-15T09:13:29;1.60;;;1.50;;
76788;SDS011;65740;52.464;13.446;2023-01-15T09:16:01;1.97;;;1.87;;
76788;SDS011;65740;52.464;13.446;2023-01-15T09:18:28;1.70;;;1.60;;
76788;SDS011;65740;52.464;13.446;2023-01-15T09:20:54;1.63;;;1.53;;
76788;SDS011;65740;52.464;13.446;2023-01-15T09:23:20;3.87;;;1.80;;
76788;SDS011;65740;52.464;13.446;2023-01-15T09:28:18;1.70;;;1.60;;
76788;SDS011;65740;52.464;13.446;2023-01-15T09:30:44;1.80;;;1.70;;
76788;SDS011;65740;52.464;13.446;2023-01-15T09:33:09;2.00;;;1.90;;
76788;SDS011;65740;52.464;13.446;2023-01-15T09:35:35;2.00;;;1.90;;
76788;SDS011;65740;52.464;13.446;2023-01-15T09:38:01;1.77;;;1.67;;
76788;SDS011;65740;52.464;13.446;2023-01-15T09:43:34;1.87;;;1.77;;
76788;SDS011;65740;52.464;13.446;2023-01-15T09:54:37;1.60;;;1.50;;
76788;SDS011;65740;52.464;13.446;2023-01-15T09:57:16;1.70;;;1.60;;
76788;SDS011;65740;52.464;13.446;2023-01-15T09:59:44;2.00;;;1.70;;
76788;SDS011;65740;52.464;13.446;2023-01-15T10:10:14;1.80;;;1.70;;
76788;SDS011;65740;52.464;13.446;2023-01-15T10:12:44;1.77;;;1.67;;
76788;SDS011;65740;52.464;13.446;2023-01-15T10:17:41;1.77;;;1.67;;
76788;SDS011;65740;52.464;13.446;2023-01-15T10:20:15;1.60;;;1.50;;
76788;SDS011;65740;52.464;13.446;2023-01-15T10:23:10;1.60;;;1.50;;
76788;SDS011;65740;52.464;13.446;2023-01-15T10:25:41;1.70;;;1.60;;
76788;SDS011;65740;52.464;13.446;2023-01-15T10:28:16;1.57;;;1.47;;
76788;SDS011;65740;52.464;13.446;2023-01-15T10:30:55;1.70;;;1.60;;
76788;SDS011;65740;52.464;13.446;2023-01-15T10:41:32;1.60;;;1.50;;
76788;SDS011;65740;52.464;13.446;2023-01-15T10:44:17;2.00;;;1.90;;
76788;SDS011;65740;52.464;13.446;2023-01-15T10:46:55;1.60;;;1.50;;
76788;SDS011;65740;52.464;13.446;2023-01-15T10:49:27;1.60;;;1.50;;
76788;SDS011;65740;52.464;13.446;2023-01-15T10:51:55;1.80;;;1.70;;
76788;SDS011;65740;52.464;13.446;2023-01-15T10:54:44;1.70;;;1.60;;
76788;SDS011;65740;52.464;13.446;2023-01-15T10:57:23;1.73;;;1.60;;
76788;SDS011;65740;52.464;13.446;2023-01-15T10:59:57;1.63;;;1.53;;
76788;SDS011;65740;52.464;13.446;2023-01-15T11:04:53;1.90;;;1.77;;
76788;SDS011;65740;52.464;13.446;2023-01-15T11:07:20;1.80;;;1.70;;
76788;SDS011;65740;52.464;13.446;2023-01-15T11:09:50;1.83;;;1.73;;
76788;SDS011;65740;52.464;13.446;2023-01-15T11:12:20;1.60;;;1.50;;
76788;SDS011;65740;52.464;13.446;2023-01-15T11:14:49;2.20;;;2.00;;
76788;SDS011;65740;52.464;13.446;2023-01-15T11:17:37;2.10;;;1.70;;
76788;SDS011;65740;52.464;13.446;2023-01-15T11:20:27;2.10;;;2.00;;
76788;SDS011;65740;52.464;13.446;2023-01-15T11:23:13;2.03;;;1.50;;
76788;SDS011;65740;52.464;13.446;2023-01-15T11:25:52;1.77;;;1.67;;
76788;SDS011;65740;52.464;13.446;2023-01-15T11:28:33;1.73;;;1.63;;
76788;SDS011;65740;52.464;13.446;2023-01-15T11:31:05;1.80;;;1.70;;
76788;SDS011;65740;52.464;13.446;2023-01-15T11:33:35;2.10;;;2.00;;
76788;SDS011;65740;52.464;13.446;2023-01-15T11:36:03;1.60;;;1.50;;
76788;SDS011;65740;52.464;13.446;2023-01-15T11:38:41;1.40;;;1.30;;
76788;SDS011;65740;52.464;13.446;2023-01-15T11:41:18;1.60;;;1.33;;
76788;SDS011;65740;52.464;13.446;2023-01-15T11:43:57;1.70;;;1.60;;
76788;SDS011;65740;52.464;13.446;2023-01-15T11:46:44;1.77;;;1.67;;
76788;SDS011;65740;52.464;13.446;2023-01-15T11:49:29;2.00;;;1.90;;
76788;SDS011;65740;52.464;13.446;2023-01-15T11:52:16;2.10;;;1.80;;
76788;SDS011;65740;52.464;13.446;2023-01-15T11:54:51;1.60;;;1.50;;
76788;SDS011;65740;52.464;13.446;2023-01-15T11:57:25;1.63;;;1.53;;
76788;SDS011;65740;52.464;13.446;2023-01-15T11:59:54;1.80;;;1.70;;
76788;SDS011;65740;52.464;13.446;2023-01-15T12:05:20;1.90;;;1.80;;
76788;SDS011;65740;52.464;13.446;2023-01-15T12:07:48;1.50;;;1.40;;
76788;SDS011;65740;52.464;13.446;2023-01-15T12:10:24;2.13;;;1.60;;
76788;SDS011;65740;52.464;13.446;2023-01-15T12:13:38;1.80;;;1.70;;
76788;SDS011;65740;52.464;13.446;2023-01-15T12:18:54;1.93;;;1.83;;
76788;SDS011;65740;52.464;13.446;2023-01-15T12:35:45;1.63;;;1.50;;
76788;SDS011;65740;52.464;13.446;2023-01-15T12:38:22;1.77;;;1.67;;
76788;SDS011;65740;52.464;13.446;2023-01-15T12:40:58;2.03;;;1.83;;
76788;SDS011;65740;52.464;13.446;2023-01-15T12:43:28;1.60;;;1.50;;
76788;SDS011;65740;52.464;13.446;2023-01-15T12:46:14;1.90;;;1.80;;
76788;SDS011;65740;52.464;13.446;2023-01-15T12:48:50;1.57;;;1.47;;
76788;SDS011;65740;52.464;13.446;2023-01-15T12:52:05;1.97;;;1.87;;
76788;SDS011;65740;52.464;13.446;2023-01-15T12:54:18;1.90;;;1.80;;
76788;SDS011;65740;52.464;13.446;2023-01-15T12:56:54;1.40;;;1.23;;
76788;SDS011;65740;52.464;13.446;2023-01-15T12:59:30;1.60;;;1.50;;
76788;SDS011;65740;52.464;13.446;2023-01-15T13:12:31;1.60;;;1.50;;
76788;SDS011;65740;52.464;13.446;2023-01-15T13:14:58;3.23;;;1.63;;
76788;SDS011;65740;52.464;13.446;2023-01-15T13:22:28;1.90;;;1.80;;
76788;SDS011;65740;52.464;13.446;2023-01-15T13:25:00;1.60;;;1.50;;
76788;SDS011;65740;52.464;13.446;2023-01-15T13:35:53;1.83;;;1.73;;
76788;SDS011;65740;52.464;13.446;2023-01-15T13:38:31;1.67;;;1.57;;
76788;SDS011;65740;52.464;13.446;2023-01-15T13:41:04;2.17;;;1.97;;
76788;SDS011;65740;52.464;13.446;2023-01-15T13:43:33;1.73;;;1.63;;
76788;SDS011;65740;52.464;13.446;2023-01-15T13:46:05;1.53;;;1.43;;
76788;SDS011;65740;52.464;13.446;2023-01-15T13:48:43;1.53;;;1.43;;
76788;SDS011;65740;52.464;13.446;2023-01-15T13:51:28;1.40;;;1.30;;
76788;SDS011;65740;52.464;13.446;2023-01-15T13:54:03;1.63;;;1.53;;
76788;SDS011;65740;52.464;13.446;2023-01-15T13:56:36;1.90;;;1.80;;
76788;SDS011;65740;52.464;13.446;2023-01-15T13:59:04;2.07;;;1.70;;
76788;SDS011;65740;52.464;13.446;2023-01-15T14:01:34;1.87;;;1.77;;
76788;SDS011;65740;52.464;13.446;2023-01-15T14:06:49;1.73;;;1.63;;
76788;SDS011;65740;52.464;13.446;2023-01-15T14:19:50;1.63;;;1.50;;
76788;SDS011;65740;52.464;13.446;2023-01-15T14:22:39;1.80;;;1.70;;
76788;SDS011;65740;52.464;13.446;2023-01-15T14:25:13;1.60;;;1.50;;
76788;SDS011;65740;52.464;13.446;2023-01-15T14:31:09;3.00;;;1.60;;
76788;SDS011;65740;52.464;13.446;2023-01-15T14:36:17;1.43;;;1.33;;
76788;SDS011;65740;52.464;13.446;2023-01-15T14:38:54;1.60;;;1.50;;
76788;SDS011;65740;52.464;13.446;2023-01-15T14:41:27;1.80;;;1.70;;
76788;SDS011;65740;52.464;13.446;2023-01-15T14:43:56;1.57;;;1.47;;
76788;SDS011;65740;52.464;13.446;2023-01-15T14:48:52;1.80;;;1.70;;
76788;SDS011;65740;52.464;13.446;2023-01-15T14:51:22;1.83;;;1.60;;
76788;SDS011;65740;52.464;13.446;2023-01-15T14:54:02;1.90;;;1.80;;
76788;SDS011;65740;52.464;13.446;2023-01-15T14:56:36;3.70;;;1.60;;
76788;SDS011;65740;52.464;13.446;2023-01-15T14:59:16;1.60;;;1.50;;
76788;SDS011;65740;52.464;13.446;2023-01-15T15:02:14;1.60;;;1.50;;
76788;SDS011;65740;52.464;13.446;2023-01-15T15:04:55;1.70;;;1.60;;
76788;SDS011;65740;52.464;13.446;2023-01-15T15:07:23;1.70;;;1.60;;
76788;SDS011;65740;52.464;13.446;2023-01-15T15:10:06;1.80;;;1.70;;
76788;SDS011;65740;52.464;13.446;2023-01-15T15:12:48;1.50;;;1.40;;
76788;SDS011;65740;52.464;13.446;2023-01-15T15:15:34;1.70;;;1.60;;
76788;SDS011;65740;52.464;13.446;2023-01-15T15:18:27;1.93;;;1.83;;
76788;SDS011;65740;52.464;13.446;2023-01-15T15:23:51;1.80;;;1.70;;
76788;SDS011;65740;52.464;13.446;2023-01-15T15:31:25;1.83;;;1.73;;
76788;SDS011;65740;52.464;13.446;2023-01-15T15:33:53;1.83;;;1.73;;
76788;SDS011;65740;52.464;13.446;2023-01-15T15:36:24;3.10;;;1.60;;
76788;SDS011;65740;52.464;13.446;2023-01-15T15:39:00;2.20;;;2.10;;
76788;SDS011;65740;52.464;13.446;2023-01-15T15:41:36;1.70;;;1.60;;
76788;SDS011;65740;52.464;13.446;2023-01-15T15:44:25;2.23;;;2.03;;
76788;SDS011;65740;52.464;13.446;2023-01-15T15:47:18;1.70;;;1.60;;
76788;SDS011;65740;52.464;13.446;2023-01-15T15:50:17;2.00;;;1.90;;
76788;SDS011;65740;52.464;13.446;2023-01-15T15:52:47;2.03;;;1.70;;
76788;SDS011;65740;52.464;13.446;2023-01-15T15:55:16;1.83;;;1.73;;
76788;SDS011;65740;52.464;13.446;2023-01-15T15:57:44;2.03;;;1.60;;
76788;SDS011;65740;52.464;13.446;2023-01-15T16:00:15;1.70;;;1.60;;
76788;SDS011;65740;52.464;13.446;2023-01-15T16:02:43;1.60;;;1.50;;
76788;SDS011;65740;52.464;13.446;2023-01-15T16:07:49;2.07;;;1.97;;
76788;SDS011;65740;52.464;13.446;2023-01-15T16:10:30;2.63;;;1.77;;
76788;SDS011;65740;52.464;13.446;2023-01-15T16:12:59;2.00;;;1.90;;
76788;SDS011;65740;52.464;13.446;2023-01-15T16:15:30;2.00;;;1.90;;
76788;SDS011;65740;52.464;13.446;2023-01-15T16:18:01;1.67;;;1.57;;
76788;SDS011;65740;52.464;13.446;2023-01-15T16:20:28;1.60;;;1.50;;
76788;SDS011;65740;52.464;13.446;2023-01-15T16:23:02;1.87;;;1.77;;
76788;SDS011;65740;52.464;13.446;2023-01-15T16:25:33;1.70;;;1.60;;
76788;SDS011;65740;52.464;13.446;2023-01-15T16:28:02;1.53;;;1.43;;
76788;SDS011;65740;52.464;13.446;2023-01-15T16:30:29;1.80;;;1.70;;
76788;SDS011;65740;52.464;13.446;2023-01-15T16:32:59;1.90;;;1.80;;
76788;SDS011;65740;52.464;13.446;2023-01-15T16:35:27;1.83;;;1.73;;
76788;SDS011;65740;52.464;13.446;2023-01-15T16:37:55;1.90;;;1.80;;
76788;SDS011;65740;52.464;13.446;2023-01-15T16:48:39;2.07;;;1.80;;
76788;SDS011;65740;52.464;13.446;2023-01-15T16:51:27;2.00;;;1.90;;
76788;SDS011;65740;52.464;13.446;2023-01-15T16:53:58;2.20;;;2.00;;
76788;SDS011;65740;52.464;13.446;2023-01-15T16:58:59;1.90;;;1.80;;
76788;SDS011;65740;52.464;13.446;2023-01-15T17:03:59;2.10;;;2.00;;
76788;SDS011;65740;52.464;13.446;2023-01-15T17:06:25;2.13;;;2.00;;
76788;SDS011;65740;52.464;13.446;2023-01-15T17:08:53;2.13;;;1.93;;
76788;SDS011;65740;52.464;13.446;2023-01-15T17:13:50;3.57;;;1.73;;
76788;SDS011;65740;52.464;13.446;2023-01-15T17:16:19;2.13;;;2.00;;
76788;SDS011;65740;52.464;13.446;2023-01-15T17:18:47;1.70;;;1.60;;
76788;SDS011;65740;52.464;13.446;2023-01-15T17:21:15;1.90;;;1.80;;
76788;SDS011;65740;52.464;13.446;2023-01-15T17:23:43;1.90;;;1.80;;